Time;durP1;ratioP1;P1;durP2;ratioP2;P2;SDS_P1;SDS_P2;PMS_P1;PMS_P2;Temp;Humidity;BMP_temperature;BMP_pressure;BME280_temperature;BME280_humidity;BME280_pressure;Samples;Min_cycle;Max_cycle;Signal;HPM_P1;HPM_P2
2021/09/26 00:01:04;;;;;;;8.70;6.67;;;;;;;17.10;80.12;95523.03;5133941;27;20522;-81
2021/09/26 00:03:31;;;;;;;11.10;6.50;;;;;;;17.02;79.88;95517.66;5133821;27;20448;-81
2021/09/26 00:05:58;;;;;;;7.37;6.30;;;;;;;16.92;80.96;95512.44;5133633;27;20446;-81
2021/09/26 00:08:25;;;;;;;5.93;5.40;;;;;;;16.91;80.57;95513.44;5133716;27;20816;-82
2021/09/26 00:10:53;;;;;;;6.63;6.03;;;;;;;16.94;80.97;95512.28;5133623;27;20470;-82
2021/09/26 00:13:20;;;;;;;7.27;6.43;;;;;;;16.98;80.44;95516.28;5133815;27;20446;-81
2021/09/26 00:15:48;;;;;;;6.97;6.10;;;;;;;16.91;80.48;95513.44;5133899;27;20445;-81
2021/09/26 00:18:15;;;;;;;7.20;5.60;;;;;;;16.97;79.91;95517.28;5133492;27;20487;-81
2021/09/26 00:20:42;;;;;;;6.37;5.87;;;;;;;16.98;80.08;95513.66;5133254;27;20947;-81
2021/09/26 00:23:08;;;;;;;10.07;6.60;;;;;;;16.99;79.92;95515.31;5133278;27;20441;-82
2021/09/26 00:25:35;;;;;;;8.93;5.93;;;;;;;17.00;79.82;95504.53;5133432;27;20438;-81
2021/09/26 00:28:04;;;;;;;6.50;5.90;;;;;;;17.02;79.59;95510.53;5133485;27;20441;-82
2021/09/26 00:30:31;;;;;;;6.40;5.90;;;;;;;17.04;79.46;95515.66;5133353;27;20801;-81
2021/09/26 00:32:58;;;;;;;8.23;6.03;;;;;;;17.06;79.16;95516.38;5133234;27;20492;-81
2021/09/26 00:35:27;;;;;;;5.73;5.13;;;;;;;17.10;78.81;95512.44;5133368;27;20800;-82
2021/09/26 00:37:53;;;;;;;6.30;5.70;;;;;;;17.17;79.08;95516.13;5133180;28;20434;-81
2021/09/26 00:40:21;;;;;;;7.60;6.87;;;;;;;17.22;78.84;95515.66;5133476;27;20940;-82
2021/09/26 00:42:48;;;;;;;6.60;6.00;;;;;;;17.23;78.81;95502.22;5132923;28;20453;-82
2021/09/26 00:45:16;;;;;;;6.80;6.13;;;;;;;17.20;78.08;95504.38;5133208;27;20439;-82
2021/09/26 00:47:43;;;;;;;6.83;6.13;;;;;;;17.13;78.88;95504.16;5133212;28;20448;-81
2021/09/26 00:50:11;;;;;;;6.77;5.90;;;;;;;17.03;79.41;95511.34;5136561;27;20539;-81
2021/09/26 00:52:41;;;;;;;6.70;6.10;;;;;;;16.95;78.90;95506.00;5137537;27;20438;-81
2021/09/26 00:55:09;;;;;;;6.13;5.53;;;;;;;16.83;79.74;95510.72;5137712;27;20447;-81
2021/09/26 00:57:36;;;;;;;6.60;6.00;;;;;;;16.70;80.37;95504.97;5137281;27;20438;-81
2021/09/26 01:00:05;;;;;;;7.60;6.30;;;;;;;16.68;80.95;95505.13;5137248;27;20845;-82
2021/09/26 01:02:33;;;;;;;6.63;6.00;;;;;;;16.65;81.03;95507.22;5137210;27;20530;-81
2021/09/26 01:05:01;;;;;;;6.50;5.40;;;;;;;16.62;80.90;95503.03;5137430;27;20557;-81
2021/09/26 01:07:33;;;;;;;6.90;6.20;;;;;;;16.50;81.62;95503.44;5137255;27;20446;-81
2021/09/26 01:10:05;;;;;;;6.30;5.70;;;;;;;16.42;81.98;95496.22;5137279;27;21008;-81
2021/09/26 01:12:41;;;;;;;6.73;6.00;;;;;;;16.53;81.80;95495.19;5137041;27;20826;-80
2021/09/26 01:15:12;;;;;;;7.90;6.30;;;;;;;16.49;82.34;95501.78;5137181;27;20509;-81
2021/09/26 01:17:44;;;;;;;7.87;6.53;;;;;;;16.49;82.12;95504.41;5137347;27;20448;-81
2021/09/26 01:20:45;;;;;;;7.53;6.07;;;;;;;16.52;81.60;95497.00;5136710;27;20479;-82
2021/09/26 01:23:35;;;;;;;12.57;7.03;;;;;;;16.50;81.86;95506.91;5137012;27;20446;-80
2021/09/26 01:26:20;;;;;;;8.50;6.10;;;;;;;16.50;82.24;95508.75;5136566;27;20446;-82
2021/09/26 01:28:59;;;;;;;9.90;7.00;;;;;;;16.46;82.20;95516.13;5136787;27;20807;-83
2021/09/26 01:31:32;;;;;;;6.37;5.70;;;;;;;16.46;82.29;95517.94;5136256;27;20440;-81
2021/09/26 01:34:04;;;;;;;8.23;6.20;;;;;;;16.40;81.67;95514.09;5136929;27;20444;-82
2021/09/26 01:36:38;;;;;;;9.90;6.87;;;;;;;16.04;83.49;95521.97;5136406;27;20815;-81
2021/09/26 01:39:09;;;;;;;8.47;7.57;;;;;;;15.95;83.61;95522.03;5136306;27;20488;-80
2021/09/26 01:41:41;;;;;;;14.30;7.43;;;;;;;15.81;84.38;95526.00;5136466;27;20470;-82
2021/09/26 01:44:14;;;;;;;7.43;6.63;;;;;;;15.80;83.95;95526.97;5136327;27;20439;-82
2021/09/26 01:46:49;;;;;;;8.47;7.60;;;;;;;15.84;83.65;95530.16;5136006;27;20444;-81
2021/09/26 01:49:21;;;;;;;14.50;7.83;;;;;;;15.76;83.71;95521.16;5136418;27;20440;-81
2021/09/26 01:51:49;;;;;;;8.87;7.93;;;;;;;15.73;84.52;95515.31;5136166;27;20921;-81
2021/09/26 01:54:17;;;;;;;9.50;7.90;;;;;;;15.74;84.64;95520.47;5136207;27;20443;-81
2021/09/26 01:56:46;;;;;;;13.60;8.30;;;;;;;15.79;84.81;95520.84;5136131;27;20443;-81
2021/09/26 01:59:18;;;;;;;7.80;7.10;;;;;;;15.86;85.42;95512.31;5136314;27;20478;-82
2021/09/26 02:01:47;;;;;;;7.60;6.90;;;;;;;15.93;84.67;95514.25;5135140;27;20951;-82
2021/09/26 02:04:16;;;;;;;7.33;6.57;;;;;;;16.00;84.51;95512.69;5136039;27;20446;-81
2021/09/26 02:06:44;;;;;;;5.77;5.17;;;;;;;16.03;84.03;95514.19;5136104;27;20981;-82
2021/09/26 02:09:14;;;;;;;7.27;5.83;;;;;;;16.07;84.04;95513.75;5099540;27;20438;-82
2021/09/26 02:11:42;;;;;;;9.10;6.10;;;;;;;16.12;83.69;95515.94;5136156;27;20438;-81
2021/09/26 02:14:12;;;;;;;7.13;6.47;;;;;;;16.17;83.22;95512.84;5136032;27;20445;-83
2021/09/26 02:16:40;;;;;;;8.13;6.33;;;;;;;16.23;83.34;95512.28;5135534;27;20441;-81
2021/09/26 02:19:09;;;;;;;6.63;6.00;;;;;;;16.25;82.91;95512.94;5135768;27;20480;-81
2021/09/26 02:21:37;;;;;;;6.27;5.67;;;;;;;16.16;82.40;95509.34;5135869;27;20540;-81
2021/09/26 02:24:05;;;;;;;6.83;6.10;;;;;;;16.10;82.73;95509.97;5135700;27;20466;-81
2021/09/26 02:26:35;;;;;;;6.37;5.77;;;;;;;16.13;82.67;95511.47;5135756;27;20498;-81
2021/09/26 02:29:02;;;;;;;7.53;5.73;;;;;;;16.17;82.22;95515.50;5135572;27;20466;-81
2021/09/26 02:31:29;;;;;;;7.80;6.50;;;;;;;16.15;81.88;95514.81;5135540;27;20525;-81
2021/09/26 02:33:56;;;;;;;6.70;6.00;;;;;;;16.15;81.63;95520.94;5135523;27;20451;-81
2021/09/26 02:36:24;;;;;;;6.00;5.40;;;;;;;16.15;81.60;95520.94;5135418;27;20515;-81
2021/09/26 02:38:51;;;;;;;6.07;5.50;;;;;;;16.10;81.88;95521.38;5135904;27;20470;-81
2021/09/26 02:41:28;;;;;;;9.00;5.97;;;;;;;16.15;82.67;95517.44;5135310;27;20450;-82
2021/09/26 02:44:01;;;;;;;8.00;4.90;;;;;;;16.16;81.61;95522.59;5135294;27;20793;-82
2021/09/26 02:46:34;;;;;;;6.50;5.87;;;;;;;16.14;82.08;95529.03;5135054;27;20444;-83
2021/09/26 02:49:02;;;;;;;6.50;5.97;;;;;;;16.13;82.19;95533.50;5135115;27;20442;-81
2021/09/26 02:51:31;;;;;;;7.40;5.77;;;;;;;16.05;81.93;95541.34;5135340;27;20446;-82
2021/09/26 02:54:00;;;;;;;8.50;6.57;;;;;;;15.79;83.62;95546.47;5134984;27;20442;-82
2021/09/26 02:56:28;;;;;;;8.60;7.70;;;;;;;15.42;84.96;95551.75;5098942;27;20947;-82
2021/09/26 02:58:59;;;;;;;12.83;8.33;;;;;;;15.40;84.80;95543.13;5098802;27;20483;-82
2021/09/26 03:01:27;;;;;;;14.67;8.27;;;;;;;15.26;85.66;95544.38;5134843;27;20447;-82
2021/09/26 03:04:00;;;;;;;8.37;7.57;;;;;;;15.21;86.28;95548.44;5134824;27;20440;-81
2021/09/26 03:06:27;;;;;;;10.50;7.40;;;;;;;15.16;86.28;95541.78;5134728;27;20430;-80
2021/09/26 03:08:56;;;;;;;7.50;6.90;;;;;;;15.15;86.60;95545.38;5134666;27;20447;-81
2021/09/26 03:11:24;;;;;;;7.10;6.43;;;;;;;15.22;87.11;95547.47;5134813;27;20433;-81
2021/09/26 03:13:51;;;;;;;13.70;7.33;;;;;;;15.27;86.63;95546.06;5133872;27;20443;-82
2021/09/26 03:16:18;;;;;;;6.70;6.00;;;;;;;15.32;86.33;95551.75;5134890;27;20456;-81
2021/09/26 03:18:45;;;;;;;7.00;6.00;;;;;;;15.37;85.81;95552.16;5134907;27;20527;-81
2021/09/26 03:21:13;;;;;;;5.77;5.27;;;;;;;15.43;85.89;95543.66;5134537;27;20451;-81
2021/09/26 03:23:40;;;;;;;6.13;5.53;;;;;;;15.45;84.82;95543.50;5134578;27;20443;-81
2021/09/26 03:26:09;;;;;;;5.63;5.13;;;;;;;15.46;84.48;95539.88;5134384;27;20521;-81
2021/09/26 03:28:36;;;;;;;5.70;4.77;;;;;;;15.48;84.82;95537.94;5134351;27;20430;-81
2021/09/26 03:31:03;;;;;;;6.53;5.83;;;;;;;15.50;84.59;95539.44;5134434;27;20452;-81
2021/09/26 03:33:30;;;;;;;6.80;6.10;;;;;;;15.56;84.34;95539.84;5134292;27;20497;-81
2021/09/26 03:35:57;;;;;;;5.93;5.37;;;;;;;15.48;84.22;95536.13;5134186;27;20457;-80
2021/09/26 03:38:24;;;;;;;6.43;5.90;;;;;;;15.47;84.75;95537.09;5134369;27;20432;-82
2021/09/26 03:40:51;;;;;;;6.67;6.07;;;;;;;15.50;84.64;95531.50;5114826;27;20476;-81
2021/09/26 03:43:19;;;;;;;6.20;5.60;;;;;;;15.53;84.45;95537.50;5134219;27;20452;-81
2021/09/26 03:45:50;;;;;;;8.93;5.80;;;;;;;15.57;83.68;95533.56;5134186;27;20440;-81
2021/09/26 03:48:19;;;;;;;9.57;5.93;;;;;;;15.60;84.13;95528.03;5134023;27;20858;-81
2021/09/26 03:50:45;;;;;;;17.40;6.90;;;;;;;15.65;83.81;95528.44;5098103;27;20450;-80
2021/09/26 03:53:12;;;;;;;9.00;6.57;;;;;;;15.64;83.77;95535.56;5133982;27;20448;-82
2021/09/26 03:55:39;;;;;;;6.27;5.70;;;;;;;15.68;83.24;95539.56;5133961;27;20441;-81
2021/09/26 03:58:06;;;;;;;7.70;7.00;;;;;;;15.66;83.20;95538.88;5133705;27;20915;-82
2021/09/26 04:00:36;;;;;;;8.40;6.23;;;;;;;15.59;82.92;95537.78;5131636;27;20492;-80
2021/09/26 04:03:02;;;;;;;8.37;6.53;;;;;;;15.44;83.13;95547.97;5133968;27;20812;-81
2021/09/26 04:05:29;;;;;;;16.43;8.00;;;;;;;15.37;83.21;95543.41;5133655;27;20941;-82
2021/09/26 04:07:56;;;;;;;9.47;6.37;;;;;;;15.17;84.38;95537.31;5114565;27;20443;-81
2021/09/26 04:10:24;;;;;;;8.07;7.10;;;;;;;15.12;84.78;95537.75;5133563;27;20967;-81
2021/09/26 04:12:50;;;;;;;9.77;7.63;;;;;;;15.07;85.30;95545.28;5133516;27;20778;-81
2021/09/26 04:15:19;;;;;;;7.47;6.77;;;;;;;15.04;85.44;95550.00;5097609;27;20474;-81
2021/09/26 04:17:47;;;;;;;8.83;7.30;;;;;;;14.97;85.02;95544.44;5133473;27;20448;-82
2021/09/26 04:20:14;;;;;;;7.37;6.67;;;;;;;15.00;85.73;95548.59;5133264;27;20479;-81
2021/09/26 04:22:41;;;;;;;7.17;6.47;;;;;;;15.00;84.89;95557.34;5133825;27;20438;-82
2021/09/26 04:25:09;;;;;;;9.10;7.93;;;;;;;14.98;84.80;95559.31;5133195;27;20451;-81
2021/09/26 04:27:36;;;;;;;9.07;6.80;;;;;;;14.93;85.46;95564.19;5133840;27;20444;-81
2021/09/26 04:30:04;;;;;;;9.97;8.00;;;;;;;14.92;85.34;95566.97;5133343;28;20448;-81
2021/09/26 04:32:31;;;;;;;11.40;7.73;;;;;;;14.88;86.18;95563.78;5133207;27;20469;-80
2021/09/26 04:35:01;;;;;;;16.43;8.67;;;;;;;14.84;86.48;95562.41;5097110;27;20436;-80
2021/09/26 04:37:28;;;;;;;8.33;7.37;;;;;;;14.86;86.80;95558.63;5097196;28;20444;-81
2021/09/26 04:39:55;;;;;;;10.17;9.17;;;;;;;14.90;86.69;95566.28;5097256;28;20992;-81
2021/09/26 04:42:21;;;;;;;9.53;8.23;;;;;;;14.93;86.18;95563.34;5133317;28;20441;-81
2021/09/26 04:44:48;;;;;;;10.03;8.30;;;;;;;14.95;86.57;95574.63;5096814;28;20440;-80
2021/09/26 04:47:15;;;;;;;12.67;8.77;;;;;;;14.98;87.09;95563.75;5133162;27;20972;-80
2021/09/26 04:49:42;;;;;;;12.50;8.67;;;;;;;15.00;86.78;95575.03;5133135;28;20837;-82
2021/09/26 04:52:11;;;;;;;8.77;7.40;;;;;;;14.93;86.22;95572.13;5133283;28;20958;-81
2021/09/26 04:54:39;;;;;;;9.33;8.10;;;;;;;14.82;86.30;95570.47;5133131;28;20463;-81
2021/09/26 04:57:06;;;;;;;10.43;8.73;;;;;;;14.75;86.96;95572.00;5132944;28;20442;-81
2021/09/26 04:59:33;;;;;;;15.00;9.30;;;;;;;14.79;86.92;95562.81;5097200;28;20481;-81
2021/09/26 05:02:00;;;;;;;11.33;8.80;;;;;;;14.88;87.33;95567.25;5132953;27;20839;-81
2021/09/26 05:04:30;;;;;;;18.23;8.93;;;;;;;14.96;86.56;95574.47;5133197;28;20434;-81
2021/09/26 05:06:58;;;;;;;12.47;9.70;;;;;;;14.99;86.87;95579.47;5133192;27;20526;-81
2021/09/26 05:09:26;;;;;;;15.10;8.40;;;;;;;15.07;86.79;95560.28;5133441;28;20476;-82
2021/09/26 05:11:54;;;;;;;12.70;8.60;;;;;;;15.28;88.74;95563.59;5133823;28;20450;-83
2021/09/26 05:14:21;;;;;;;13.33;8.77;;;;;;;15.80;88.09;95564.03;5134218;28;20484;-83
2021/09/26 05:16:48;;;;;;;11.13;7.80;;;;;;;16.37;82.77;95567.38;5133766;28;20461;-82
2021/09/26 05:19:15;;;;;;;8.97;8.07;;;;;;;16.88;79.52;95572.06;5097877;28;20928;-83
2021/09/26 05:21:42;;;;;;;11.73;9.27;;;;;;;17.37;77.45;95571.63;5133401;28;20433;-81
2021/09/26 05:24:09;;;;;;;9.70;8.23;;;;;;;17.84;75.33;95575.59;5133401;28;20517;-83
2021/09/26 05:26:37;;;;;;;8.57;7.83;;;;;;;18.25;73.18;95565.19;5133471;28;20438;-82
2021/09/26 05:29:06;;;;;;;13.73;7.43;;;;;;;18.79;73.85;95566.53;5133126;28;20445;-81
2021/09/26 05:31:33;;;;;;;9.90;8.77;;;;;;;19.27;69.97;95564.88;5114073;28;20464;-82
2021/09/26 05:34:01;;;;;;;11.10;7.50;;;;;;;19.78;67.93;95571.69;5133219;28;20934;-83
2021/09/26 05:36:28;;;;;;;8.67;7.87;;;;;;;20.03;66.98;95574.28;5135353;27;20447;-82
2021/09/26 05:38:55;;;;;;;7.97;7.17;;;;;;;20.48;65.69;95570.13;5137218;27;20442;-82
2021/09/26 05:41:22;;;;;;;7.70;7.00;;;;;;;20.82;62.93;95578.63;5137013;27;20482;-81
2021/09/26 05:43:50;;;;;;;9.93;6.77;;;;;;;20.98;63.89;95575.84;5131532;27;20448;-81
2021/09/26 05:46:17;;;;;;;7.63;6.90;;;;;;;21.27;61.00;95582.31;5129589;27;20834;-80
2021/09/26 05:48:44;;;;;;;7.20;6.50;;;;;;;21.49;60.61;95580.66;5129708;27;20492;-81
2021/09/26 05:51:11;;;;;;;10.90;6.43;;;;;;;21.65;59.57;95580.50;5122519;27;20473;-80
2021/09/26 05:53:38;;;;;;;7.77;6.70;;;;;;;21.73;60.55;95576.94;5119432;27;20773;-83
2021/09/26 05:56:05;;;;;;;7.43;6.73;;;;;;;21.78;59.18;95582.56;5129316;27;20777;-81
2021/09/26 05:58:32;;;;;;;6.83;6.23;;;;;;;21.84;60.33;95585.31;5127764;27;20450;-82
2021/09/26 06:01:00;;;;;;;7.80;7.07;;;;;;;22.07;58.20;95582.63;5136580;27;20977;-81
2021/09/26 06:03:27;;;;;;;6.70;6.20;;;;;;;21.90;58.34;95583.75;5117730;27;20446;-82
2021/09/26 06:05:54;;;;;;;12.93;7.10;;;;;;;22.19;58.27;95575.78;5115930;28;20531;-81
2021/09/26 06:08:26;;;;;;;9.90;6.90;;;;;;;22.49;57.70;95586.44;5116056;28;20444;-82
2021/09/26 06:10:53;;;;;;;8.27;7.23;;;;;;;22.70;57.30;95588.38;5115962;28;21037;-81
2021/09/26 06:13:22;;;;;;;7.07;6.37;;;;;;;22.92;56.21;95592.78;5116003;28;20458;-80
2021/09/26 06:15:49;;;;;;;7.50;6.70;;;;;;;23.23;55.41;95589.81;5105741;28;20438;-79
2021/09/26 06:18:18;;;;;;;7.47;6.77;;;;;;;23.47;54.46;95585.91;5128129;27;20445;-80
2021/09/26 06:20:45;;;;;;;8.33;6.90;;;;;;;23.73;54.49;95575.44;5136124;27;20484;-79
2021/09/26 06:23:12;;;;;;;6.97;6.27;;;;;;;23.97;53.09;95578.69;5134280;27;20442;-80
2021/09/26 06:25:39;;;;;;;11.30;6.93;;;;;;;24.06;52.51;95575.69;5082097;27;20487;-79
2021/09/26 06:28:06;;;;;;;7.33;6.60;;;;;;;24.00;53.13;95576.47;5118769;27;20449;-79
2021/09/26 06:30:35;;;;;;;11.10;7.23;;;;;;;24.06;53.31;95575.69;5125801;27;20447;-79
2021/09/26 06:33:02;;;;;;;7.83;7.03;;;;;;;24.23;52.49;95580.72;5131891;27;20958;-78
2021/09/26 06:35:30;;;;;;;10.77;7.60;;;;;;;24.45;52.78;95574.28;5099866;27;20786;-78
2021/09/26 06:37:57;;;;;;;9.63;6.90;;;;;;;24.50;52.02;95573.66;5099550;27;20910;-79
2021/09/26 06:40:24;;;;;;;9.80;7.40;;;;;;;24.19;53.02;95574.91;5134108;27;20485;-77
2021/09/26 06:42:52;;;;;;;7.37;6.10;;;;;;;23.64;54.42;95573.91;5135999;27;20439;-78
2021/09/26 06:45:19;;;;;;;10.63;6.80;;;;;;;23.90;53.92;95578.66;5135357;27;20439;-78
2021/09/26 06:47:46;;;;;;;7.87;6.50;;;;;;;23.75;53.76;95578.78;5135759;27;20435;-79
2021/09/26 06:50:12;;;;;;;7.90;6.30;;;;;;;23.77;54.48;95576.72;5089520;28;20451;-80
2021/09/26 06:52:42;;;;;;;8.47;7.30;;;;;;;23.81;54.76;95573.66;5121768;27;20815;-79
2021/09/26 06:55:20;;;;;;;7.20;6.17;;;;;;;23.88;55.01;95579.88;5122669;27;20972;-80
2021/09/26 06:57:47;;;;;;;6.50;5.97;;;;;;;23.88;54.36;95575.34;5115015;28;20551;-77
2021/09/26 07:00:15;;;;;;;9.07;6.63;;;;;;;23.80;54.45;95575.50;5114830;28;20476;-77
2021/09/26 07:02:43;;;;;;;10.80;6.30;;;;;;;23.82;55.56;95573.44;5079046;28;20505;-79
2021/09/26 07:05:11;;;;;;;6.60;6.00;;;;;;;23.54;55.85;95572.56;5133235;27;20985;-83
2021/09/26 07:07:38;;;;;;;8.47;5.87;;;;;;;23.68;56.04;95569.00;5115567;27;20946;-81
2021/09/26 07:10:07;;;;;;;18.20;13.73;;;;;;;23.81;54.53;95574.47;5135497;27;20443;-81
2021/09/26 07:12:34;;;;;;;7.77;7.03;;;;;;;23.69;55.01;95570.66;5116402;27;20477;-81
2021/09/26 07:15:02;;;;;;;12.10;7.10;;;;;;;23.92;55.44;95575.78;5135255;27;20462;-81
2021/09/26 07:17:30;;;;;;;7.57;6.87;;;;;;;24.11;55.02;95580.44;5134878;27;20446;-81
2021/09/26 07:19:57;;;;;;;8.03;6.20;;;;;;;24.09;53.13;95580.66;5135876;27;20443;-83
2021/09/26 07:22:25;;;;;;;8.33;5.97;;;;;;;23.83;54.04;95575.09;5136188;27;20512;-82
2021/09/26 07:24:53;;;;;;;12.73;6.43;;;;;;;24.00;54.34;95579.16;5135827;27;20471;-82
2021/09/26 07:27:21;;;;;;;10.53;5.90;;;;;;;24.02;53.82;95581.63;5135530;27;20457;-81
2021/09/26 07:29:49;;;;;;;8.70;6.27;;;;;;;24.20;54.30;95571.22;5135223;27;20454;-81
2021/09/26 07:32:16;;;;;;;6.07;5.57;;;;;;;24.46;54.19;95583.16;5134908;27;20478;-82
2021/09/26 07:34:44;;;;;;;11.37;6.83;;;;;;;24.10;52.89;95579.63;5134219;27;20436;-81
2021/09/26 07:37:11;;;;;;;7.70;7.00;;;;;;;24.10;53.84;95579.63;5126616;27;20459;-80
2021/09/26 07:39:38;;;;;;;7.33;6.70;;;;;;;24.09;53.44;95580.66;5124225;27;20457;-80
2021/09/26 07:42:06;;;;;;;8.13;7.37;;;;;;;24.05;53.60;95575.88;5122821;27;20477;-81
2021/09/26 07:44:34;;;;;;;11.43;10.43;;;;;;;24.15;53.75;95575.53;5134071;27;20451;-81
2021/09/26 07:47:01;;;;;;;11.77;8.07;;;;;;;23.75;54.03;95580.63;5134811;27;20574;-82
2021/09/26 07:49:28;;;;;;;9.50;7.80;;;;;;;23.72;53.71;95579.16;5098513;27;20437;-81
2021/09/26 07:51:55;;;;;;;8.03;7.30;;;;;;;23.44;54.83;95584.47;5134810;27;20452;-82
2021/09/26 07:54:22;;;;;;;8.33;7.63;;;;;;;23.71;54.68;95579.34;5134741;27;20454;-83
2021/09/26 07:56:49;;;;;;;13.50;7.67;;;;;;;23.89;54.03;95581.53;5134254;27;20457;-81
2021/09/26 07:59:19;;;;;;;7.33;6.30;;;;;;;23.94;53.96;95579.09;5133338;27;20448;-81
2021/09/26 08:01:48;;;;;;;10.33;7.20;;;;;;;24.06;54.87;95581.03;5134046;27;20489;-80
2021/09/26 08:04:15;;;;;;;7.50;6.80;;;;;;;24.16;54.71;95578.00;5134066;27;20454;-82
2021/09/26 08:06:42;;;;;;;7.53;6.83;;;;;;;23.98;55.06;95586.53;5111759;27;20458;-80
2021/09/26 08:09:09;;;;;;;6.73;6.13;;;;;;;24.05;54.53;95579.38;5094760;28;20450;-82
2021/09/26 08:11:35;;;;;;;10.00;5.70;;;;;;;24.29;55.57;95572.75;5091804;27;20471;-81
2021/09/26 08:14:03;;;;;;;8.60;6.37;;;;;;;24.53;54.88;95574.09;5129572;27;20444;-81
2021/09/26 08:16:30;;;;;;;6.40;5.80;;;;;;;24.73;52.88;95579.56;5134264;27;20448;-80
2021/09/26 08:18:58;;;;;;;7.80;6.27;;;;;;;24.75;53.34;95569.44;5134111;27;20923;-82
2021/09/26 08:21:26;;;;;;;9.57;6.63;;;;;;;24.88;52.03;95571.38;5132875;27;20490;-81
2021/09/26 08:23:53;;;;;;;5.80;5.30;;;;;;;25.02;53.28;95571.22;5132144;27;20896;-84
2021/09/26 08:26:21;;;;;;;6.97;6.27;;;;;;;25.00;52.17;95565.22;5133699;27;20453;-81
2021/09/26 08:28:48;;;;;;;10.83;5.43;;;;;;;24.94;52.15;95566.00;5133566;27;20517;-82
2021/09/26 08:31:15;;;;;;;6.10;5.50;;;;;;;24.57;52.58;95569.97;5133847;27;20773;-81
2021/09/26 08:33:42;;;;;;;9.10;6.63;;;;;;;24.68;51.53;95561.38;5097730;28;20804;-82
2021/09/26 08:36:10;;;;;;;7.20;6.17;;;;;;;24.87;51.51;95559.78;5132993;27;20451;-82
2021/09/26 08:38:37;;;;;;;6.63;5.83;;;;;;;24.81;51.54;95555.22;5096250;28;20452;-80
2021/09/26 08:41:04;;;;;;;6.20;5.63;;;;;;;25.03;52.46;95555.94;5132228;27;20987;-81
2021/09/26 08:43:31;;;;;;;6.90;5.70;;;;;;;25.11;51.09;95555.72;5097454;28;20805;-81
2021/09/26 08:45:58;;;;;;;8.37;6.20;;;;;;;25.16;50.83;95553.28;5132892;28;20959;-81
2021/09/26 08:48:28;;;;;;;6.83;6.23;;;;;;;24.73;51.28;95554.56;5133039;28;20932;-82
2021/09/26 08:50:56;;;;;;;5.93;5.43;;;;;;;24.86;51.18;95555.44;5133941;28;20928;-84
2021/09/26 08:53:25;;;;;;;6.20;5.70;;;;;;;24.98;51.70;95550.31;5134379;27;20443;-84
2021/09/26 08:55:53;;;;;;;8.77;6.20;;;;;;;25.08;50.98;95545.41;5134692;27;20951;-83
2021/09/26 08:58:20;;;;;;;6.30;5.70;;;;;;;25.11;51.06;95538.78;5132931;28;20442;-84
2021/09/26 09:00:47;;;;;;;8.40;5.80;;;;;;;25.07;51.05;95541.06;5134389;28;20484;-84
2021/09/26 09:03:15;;;;;;;7.27;6.10;;;;;;;25.06;51.59;95539.41;5133443;27;20444;-83
2021/09/26 09:05:44;;;;;;;6.50;5.90;;;;;;;25.09;50.70;95533.63;5134655;27;20524;-83
2021/09/26 09:08:12;;;;;;;6.20;5.60;;;;;;;25.00;51.33;95538.38;5134106;27;20458;-80
2021/09/26 09:10:46;;;;;;;6.87;6.17;;;;;;;25.06;51.93;95531.34;5136594;27;20456;-80
2021/09/26 09:13:15;;;;;;;6.57;5.50;;;;;;;25.09;51.09;95536.31;5138197;27;20444;-81
2021/09/26 09:15:50;;;;;;;6.03;4.93;;;;;;;25.11;50.42;95534.25;5137025;27;20464;-81
2021/09/26 09:18:18;;;;;;;6.90;4.23;;;;;;;24.97;48.27;95535.22;5100288;27;20446;-82
2021/09/26 09:20:45;;;;;;;8.33;5.30;;;;;;;25.13;52.03;95529.50;5136646;27;20477;-85
2021/09/26 09:23:16;;;;;;;5.70;5.20;;;;;;;25.05;48.97;95529.69;5137057;27;20520;-79
2021/09/26 09:25:46;;;;;;;5.33;4.50;;;;;;;25.11;49.62;95528.88;5136736;27;20550;-81
2021/09/26 09:28:16;;;;;;;4.97;4.53;;;;;;;25.28;49.09;95530.13;5136096;27;20469;-81
2021/09/26 09:30:45;;;;;;;15.70;5.63;;;;;;;25.29;48.11;95526.41;5136593;27;20987;-80
2021/09/26 09:33:12;;;;;;;4.33;3.93;;;;;;;25.17;46.73;95519.19;5136742;27;20559;-81
2021/09/26 09:35:43;;;;;;;5.57;4.50;;;;;;;25.13;47.61;95521.44;5136803;27;20476;-80
2021/09/26 09:38:10;;;;;;;5.60;5.10;;;;;;;25.27;48.49;95525.81;5136931;27;20456;-80
2021/09/26 09:40:37;;;;;;;5.00;4.50;;;;;;;25.40;48.02;95518.78;5135946;27;20528;-79
2021/09/26 09:43:06;;;;;;;5.53;5.13;;;;;;;25.48;48.63;95516.72;5136197;27;20864;-79
2021/09/26 09:45:35;;;;;;;10.90;5.30;;;;;;;25.38;48.35;95523.53;5136426;27;20564;-80
2021/09/26 09:48:09;;;;;;;6.77;6.17;;;;;;;25.46;49.06;95507.22;5136344;27;20437;-78
2021/09/26 09:50:52;;;;;;;7.60;5.43;;;;;;;25.48;49.75;95507.84;5100114;27;20452;-80
2021/09/26 09:53:28;;;;;;;5.10;4.70;;;;;;;25.55;49.67;95503.28;5135601;27;20440;-78
2021/09/26 09:56:04;;;;;;;6.63;4.90;;;;;;;25.51;49.54;95502.88;5134863;27;20449;-80
2021/09/26 09:58:42;;;;;;;5.20;4.70;;;;;;;25.57;48.83;95502.03;5135246;27;20434;-79
2021/09/26 10:01:12;;;;;;;9.00;4.97;;;;;;;25.55;49.61;95498.72;5135469;27;20488;-79
2021/09/26 10:03:50;;;;;;;7.00;5.40;;;;;;;25.58;50.94;95494.78;5135645;27;20945;-78
2021/09/26 10:06:36;;;;;;;5.30;4.77;;;;;;;25.64;48.04;95488.56;5135176;27;20917;-78
2021/09/26 10:09:16;;;;;;;5.90;5.30;;;;;;;25.67;48.74;95490.06;5136118;27;20450;-80
2021/09/26 10:11:45;;;;;;;5.33;4.83;;;;;;;25.68;49.07;95484.47;5135824;27;20433;-80
2021/09/26 10:14:14;;;;;;;5.53;5.00;;;;;;;25.59;47.81;95480.31;5135621;27;20442;-80
2021/09/26 10:16:42;;;;;;;4.20;3.90;;;;;;;25.68;48.39;95481.78;5135549;27;20450;-80
2021/09/26 10:19:09;;;;;;;9.00;4.90;;;;;;;25.57;48.06;95485.06;5135948;27;20442;-80
2021/09/26 10:21:38;;;;;;;5.63;4.90;;;;;;;25.60;48.53;95474.72;5098552;27;20484;-80
2021/09/26 10:24:06;;;;;;;4.83;4.33;;;;;;;25.64;48.64;95469.75;5133635;27;20445;-80
2021/09/26 10:26:34;;;;;;;6.20;4.90;;;;;;;25.65;48.33;95468.72;5131869;27;20918;-79
2021/09/26 10:29:03;;;;;;;4.67;4.13;;;;;;;25.66;49.28;95462.31;5132140;27;20920;-80
2021/09/26 10:31:31;;;;;;;8.30;4.97;;;;;;;25.66;47.77;95464.16;5134957;27;20893;-78
2021/09/26 10:34:01;;;;;;;9.40;5.30;;;;;;;25.58;48.06;95457.16;5135972;27;20929;-80
2021/09/26 10:36:30;;;;;;;5.43;4.93;;;;;;;25.61;48.11;95454.06;5135968;27;20562;-80
2021/09/26 10:38:59;;;;;;;5.17;4.67;;;;;;;25.32;48.37;95456.16;5135930;27;20456;-80
2021/09/26 10:41:26;;;;;;;5.37;4.90;;;;;;;25.53;48.51;95451.59;5135715;27;20485;-78
2021/09/26 10:43:53;;;;;;;8.23;5.37;;;;;;;25.59;48.39;95451.56;5133797;27;20460;-78
2021/09/26 10:46:24;;;;;;;4.90;4.50;;;;;;;25.63;47.62;95450.13;5136080;27;20438;-79
2021/09/26 10:49:15;;;;;;;6.27;5.10;;;;;;;25.76;46.42;95451.19;5099485;27;20442;-79
2021/09/26 10:51:58;;;;;;;4.37;3.97;;;;;;;25.69;46.73;95445.78;5091509;27;20446;-79
2021/09/26 10:54:32;;;;;;;6.20;4.83;;;;;;;25.76;47.39;95435.88;5135515;27;20456;-79
2021/09/26 10:57:22;;;;;;;6.43;5.83;;;;;;;25.64;46.85;95437.50;5132771;27;20446;-79
2021/09/26 10:59:52;;;;;;;5.80;5.20;;;;;;;25.75;46.32;95431.53;5135783;27;20536;-79
2021/09/26 11:02:45;;;;;;;9.93;5.23;;;;;;;25.81;43.74;95427.16;5135252;27;20482;-80
2021/09/26 11:05:33;;;;;;;7.23;5.37;;;;;;;25.83;46.20;95425.91;5135099;27;20456;-81
2021/09/26 11:08:01;;;;;;;5.77;5.27;;;;;;;25.97;46.92;95415.09;5133911;27;20945;-79
2021/09/26 11:10:43;;;;;;;4.60;4.20;;;;;;;26.06;44.19;95420.06;5135179;27;20921;-80
2021/09/26 11:13:25;;;;;;;7.40;4.93;;;;;;;26.08;43.53;95411.75;5133620;27;20470;-79
2021/09/26 11:16:12;;;;;;;5.20;4.70;;;;;;;26.12;43.25;95407.59;5133488;27;20982;-79
2021/09/26 11:18:45;;;;;;;6.73;5.20;;;;;;;26.19;43.29;95406.53;5099046;27;20512;-80
2021/09/26 11:21:45;;;;;;;5.47;4.97;;;;;;;26.25;43.42;95402.97;5133127;27;20445;-79
2021/09/26 11:24:15;;;;;;;5.67;5.17;;;;;;;26.25;42.67;95397.59;5134219;27;20917;-80
2021/09/26 11:27:01;;;;;;;8.70;4.63;;;;;;;26.27;40.99;95392.00;5134719;27;20456;-78
2021/09/26 11:29:30;;;;;;;10.20;5.10;;;;;;;26.35;40.82;95390.97;5133642;27;20460;-79
2021/09/26 11:31:58;;;;;;;6.07;5.00;;;;;;;26.41;41.21;95385.53;5134168;27;20478;-80
2021/09/26 11:34:37;;;;;;;6.23;4.70;;;;;;;26.50;41.07;95386.09;5129101;27;20527;-85
2021/09/26 11:37:05;;;;;;;9.63;5.70;;;;;;;26.55;40.91;95378.19;5133971;27;20440;-80
2021/09/26 11:39:33;;;;;;;5.93;5.40;;;;;;;26.59;40.86;95378.59;5096941;27;20445;-79
2021/09/26 11:42:02;;;;;;;6.87;4.97;;;;;;;26.59;41.22;95370.50;5133459;27;20838;-79